sensor_id;sensor_type;location;lat;lon;timestamp;P1;durP1;ratioP1;P2;durP2;ratioP2
13012;SDS011;22580;57.670;12.006;2023-05-23T00:01:28;0.40;;;0.40;;
13012;SDS011;22580;57.670;12.006;2023-05-23T00:03:56;0.40;;;0.40;;
13012;SDS011;22580;57.670;12.006;2023-05-23T00:06:24;0.30;;;0.30;;
13012;SDS011;22580;57.670;12.006;2023-05-23T00:08:52;0.30;;;0.30;;
13012;SDS011;22580;57.670;12.006;2023-05-23T00:11:19;0.40;;;0.40;;
13012;SDS011;22580;57.670;12.006;2023-05-23T00:13:51;0.28;;;0.28;;
13012;SDS011;22580;57.670;12.006;2023-05-23T00:16:18;0.25;;;0.25;;
13012;SDS011;22580;57.670;12.006;2023-05-23T00:18:45;0.20;;;0.20;;
13012;SDS011;22580;57.670;12.006;2023-05-23T00:21:15;0.30;;;0.30;;
13012;SDS011;22580;57.670;12.006;2023-05-23T00:23:43;0.30;;;0.30;;
13012;SDS011;22580;57.670;12.006;2023-05-23T00:26:14;0.32;;;0.32;;
13012;SDS011;22580;57.670;12.006;2023-05-23T00:28:41;0.45;;;0.45;;
13012;SDS011;22580;57.670;12.006;2023-05-23T00:31:13;0.52;;;0.40;;
13012;SDS011;22580;57.670;12.006;2023-05-23T00:33:44;0.70;;;0.70;;
13012;SDS011;22580;57.670;12.006;2023-05-23T00:36:12;0.35;;;0.35;;
13012;SDS011;22580;57.670;12.006;2023-05-23T00:38:40;0.50;;;0.50;;
13012;SDS011;22580;57.670;12.006;2023-05-23T00:41:07;0.43;;;0.43;;
13012;SDS011;22580;57.670;12.006;2023-05-23T00:43:37;0.40;;;0.40;;
13012;SDS011;22580;57.670;12.006;2023-05-23T00:46:15;0.68;;;0.68;;
13012;SDS011;22580;57.670;12.006;2023-05-23T00:48:46;0.40;;;0.40;;
13012;SDS011;22580;57.670;12.006;2023-05-23T00:51:15;0.40;;;0.40;;
13012;SDS011;22580;57.670;12.006;2023-05-23T00:53:45;0.52;;;0.50;;
13012;SDS011;22580;57.670;12.006;2023-05-23T00:56:15;0.40;;;0.40;;
13012;SDS011;22580;57.670;12.006;2023-05-23T00:58:47;0.50;;;0.50;;
13012;SDS011;22580;57.670;12.006;2023-05-23T01:01:14;0.40;;;0.40;;
13012;SDS011;22580;57.670;12.006;2023-05-23T01:03:49;0.43;;;0.43;;
13012;SDS011;22580;57.670;12.006;2023-05-23T01:06:19;0.73;;;0.73;;
13012;SDS011;22580;57.670;12.006;2023-05-23T01:08:48;0.57;;;0.57;;
13012;SDS011;22580;57.670;12.006;2023-05-23T01:11:17;0.60;;;0.60;;
13012;SDS011;22580;57.670;12.006;2023-05-23T01:14:08;0.50;;;0.50;;
13012;SDS011;22580;57.670;12.006;2023-05-23T01:16:40;0.47;;;0.47;;
13012;SDS011;22580;57.670;12.006;2023-05-23T01:19:16;0.40;;;0.40;;
13012;SDS011;22580;57.670;12.006;2023-05-23T01:22:00;0.40;;;0.40;;
13012;SDS011;22580;57.670;12.006;2023-05-23T01:24:35;0.55;;;0.55;;
13012;SDS011;22580;57.670;12.006;2023-05-23T01:27:08;0.68;;;0.60;;
13012;SDS011;22580;57.670;12.006;2023-05-23T01:29:52;0.55;;;0.55;;
13012;SDS011;22580;57.670;12.006;2023-05-23T01:32:22;0.50;;;0.50;;
13012;SDS011;22580;57.670;12.006;2023-05-23T01:34:51;0.60;;;0.60;;
13012;SDS011;22580;57.670;12.006;2023-05-23T01:37:19;0.50;;;0.50;;
13012;SDS011;22580;57.670;12.006;2023-05-23T01:39:46;0.52;;;0.52;;
13012;SDS011;22580;57.670;12.006;2023-05-23T01:42:13;0.40;;;0.40;;
13012;SDS011;22580;57.670;12.006;2023-05-23T01:44:40;0.50;;;0.50;;
13012;SDS011;22580;57.670;12.006;2023-05-23T01:47:09;0.52;;;0.52;;
13012;SDS011;22580;57.670;12.006;2023-05-23T01:49:37;0.60;;;0.60;;
13012;SDS011;22580;57.670;12.006;2023-05-23T01:52:08;0.50;;;0.50;;
13012;SDS011;22580;57.670;12.006;2023-05-23T01:54:37;0.60;;;0.60;;
13012;SDS011;22580;57.670;12.006;2023-05-23T01:57:08;0.50;;;0.50;;
13012;SDS011;22580;57.670;12.006;2023-05-23T01:59:36;0.50;;;0.50;;
13012;SDS011;22580;57.670;12.006;2023-05-23T02:02:03;0.50;;;0.50;;
13012;SDS011;22580;57.670;12.006;2023-05-23T02:04:31;0.50;;;0.50;;
13012;SDS011;22580;57.670;12.006;2023-05-23T02:06:59;0.60;;;0.60;;
13012;SDS011;22580;57.670;12.006;2023-05-23T02:09:26;0.40;;;0.40;;
13012;SDS011;22580;57.670;12.006;2023-05-23T02:11:53;0.40;;;0.40;;
13012;SDS011;22580;57.670;12.006;2023-05-23T02:14:20;0.60;;;0.60;;
13012;SDS011;22580;57.670;12.006;2023-05-23T02:16:48;0.50;;;0.50;;
13012;SDS011;22580;57.670;12.006;2023-05-23T02:19:17;0.63;;;0.63;;
13012;SDS011;22580;57.670;12.006;2023-05-23T02:21:46;0.60;;;0.60;;
13012;SDS011;22580;57.670;12.006;2023-05-23T02:24:13;0.40;;;0.40;;
13012;SDS011;22580;57.670;12.006;2023-05-23T02:26:40;0.52;;;0.52;;
13012;SDS011;22580;57.670;12.006;2023-05-23T02:29:07;0.40;;;0.40;;
13012;SDS011;22580;57.670;12.006;2023-05-23T02:31:35;0.65;;;0.65;;
13012;SDS011;22580;57.670;12.006;2023-05-23T02:34:02;0.40;;;0.40;;
13012;SDS011;22580;57.670;12.006;2023-05-23T02:36:29;0.52;;;0.52;;
13012;SDS011;22580;57.670;12.006;2023-05-23T02:39:01;0.50;;;0.50;;
13012;SDS011;22580;57.670;12.006;2023-05-23T02:41:30;0.40;;;0.40;;
13012;SDS011;22580;57.670;12.006;2023-05-23T02:43:58;0.57;;;0.57;;
13012;SDS011;22580;57.670;12.006;2023-05-23T02:46:25;0.50;;;0.50;;
13012;SDS011;22580;57.670;12.006;2023-05-23T02:48:53;0.40;;;0.40;;
13012;SDS011;22580;57.670;12.006;2023-05-23T02:51:20;0.50;;;0.50;;
13012;SDS011;22580;57.670;12.006;2023-05-23T02:53:48;0.80;;;0.80;;
13012;SDS011;22580;57.670;12.006;2023-05-23T02:56:22;0.60;;;0.60;;
13012;SDS011;22580;57.670;12.006;2023-05-23T02:58:52;0.52;;;0.52;;
13012;SDS011;22580;57.670;12.006;2023-05-23T03:01:19;0.60;;;0.60;;
13012;SDS011;22580;57.670;12.006;2023-05-23T03:03:50;0.70;;;0.70;;
13012;SDS011;22580;57.670;12.006;2023-05-23T03:06:17;0.80;;;0.80;;
13012;SDS011;22580;57.670;12.006;2023-05-23T03:08:46;0.70;;;0.70;;
13012;SDS011;22580;57.670;12.006;2023-05-23T03:11:14;0.88;;;0.88;;
13012;SDS011;22580;57.670;12.006;2023-05-23T03:16:31;0.80;;;0.80;;
13012;SDS011;22580;57.670;12.006;2023-05-23T03:19:37;0.70;;;0.70;;
13012;SDS011;22580;57.670;12.006;2023-05-23T03:22:51;1.05;;;0.98;;
13012;SDS011;22580;57.670;12.006;2023-05-23T03:25:43;0.88;;;0.88;;
13012;SDS011;22580;57.670;12.006;2023-05-23T03:28:11;0.70;;;0.70;;
13012;SDS011;22580;57.670;12.006;2023-05-23T03:30:49;0.73;;;0.73;;
13012;SDS011;22580;57.670;12.006;2023-05-23T03:33:16;0.82;;;0.75;;
13012;SDS011;22580;57.670;12.006;2023-05-23T03:35:43;0.93;;;0.93;;
13012;SDS011;22580;57.670;12.006;2023-05-23T03:38:14;0.80;;;0.80;;
13012;SDS011;22580;57.670;12.006;2023-05-23T03:40:47;1.00;;;0.98;;
13012;SDS011;22580;57.670;12.006;2023-05-23T03:43:14;0.77;;;0.77;;
13012;SDS011;22580;57.670;12.006;2023-05-23T03:45:45;0.80;;;0.80;;
13012;SDS011;22580;57.670;12.006;2023-05-23T03:48:13;0.55;;;0.55;;
13012;SDS011;22580;57.670;12.006;2023-05-23T03:50:53;0.70;;;0.70;;
13012;SDS011;22580;57.670;12.006;2023-05-23T03:53:21;0.70;;;0.70;;
13012;SDS011;22580;57.670;12.006;2023-05-23T03:55:48;0.52;;;0.52;;
13012;SDS011;22580;57.670;12.006;2023-05-23T03:58:16;0.60;;;0.60;;
13012;SDS011;22580;57.670;12.006;2023-05-23T04:00:46;0.50;;;0.50;;
13012;SDS011;22580;57.670;12.006;2023-05-23T04:03:14;0.68;;;0.68;;
13012;SDS011;22580;57.670;12.006;2023-05-23T04:05:41;0.50;;;0.50;;
13012;SDS011;22580;57.670;12.006;2023-05-23T04:08:09;0.50;;;0.50;;
13012;SDS011;22580;57.670;12.006;2023-05-23T04:10:36;0.50;;;0.50;;
13012;SDS011;22580;57.670;12.006;2023-05-23T04:13:03;0.50;;;0.50;;
13012;SDS011;22580;57.670;12.006;2023-05-23T04:15:30;0.60;;;0.60;;
13012;SDS011;22580;57.670;12.006;2023-05-23T04:17:59;0.50;;;0.50;;
13012;SDS011;22580;57.670;12.006;2023-05-23T04:20:33;0.50;;;0.50;;
13012;SDS011;22580;57.670;12.006;2023-05-23T04:23:00;0.68;;;0.60;;
13012;SDS011;22580;57.670;12.006;2023-05-23T04:25:27;0.60;;;0.60;;
13012;SDS011;22580;57.670;12.006;2023-05-23T04:27:55;0.73;;;0.73;;
13012;SDS011;22580;57.670;12.006;2023-05-23T04:30:22;1.00;;;0.90;;
13012;SDS011;22580;57.670;12.006;2023-05-23T04:32:54;0.70;;;0.70;;
13012;SDS011;22580;57.670;12.006;2023-05-23T04:35:25;0.75;;;0.75;;
13012;SDS011;22580;57.670;12.006;2023-05-23T04:37:52;0.90;;;0.90;;
13012;SDS011;22580;57.670;12.006;2023-05-23T04:48:25;0.57;;;0.57;;
13012;SDS011;22580;57.670;12.006;2023-05-23T05:01:59;0.40;;;0.40;;
13012;SDS011;22580;57.670;12.006;2023-05-23T05:04:29;0.30;;;0.30;;
13012;SDS011;22580;57.670;12.006;2023-05-23T05:07:01;0.40;;;0.40;;
13012;SDS011;22580;57.670;12.006;2023-05-23T05:10:15;0.30;;;0.30;;
13012;SDS011;22580;57.670;12.006;2023-05-23T05:12:40;0.40;;;0.40;;
13012;SDS011;22580;57.670;12.006;2023-05-23T05:18:58;0.70;;;0.70;;
13012;SDS011;22580;57.670;12.006;2023-05-23T05:21:25;0.60;;;0.60;;
13012;SDS011;22580;57.670;12.006;2023-05-23T05:23:55;0.60;;;0.60;;
13012;SDS011;22580;57.670;12.006;2023-05-23T05:26:24;0.40;;;0.40;;
13012;SDS011;22580;57.670;12.006;2023-05-23T05:28:52;0.52;;;0.52;;
13012;SDS011;22580;57.670;12.006;2023-05-23T05:31:19;0.98;;;0.98;;
13012;SDS011;22580;57.670;12.006;2023-05-23T05:34:12;0.63;;;0.63;;
13012;SDS011;22580;57.670;12.006;2023-05-23T05:36:59;0.70;;;0.70;;
13012;SDS011;22580;57.670;12.006;2023-05-23T05:39:33;0.80;;;0.80;;
13012;SDS011;22580;57.670;12.006;2023-05-23T05:42:00;0.85;;;0.85;;
13012;SDS011;22580;57.670;12.006;2023-05-23T05:44:28;0.57;;;0.57;;
13012;SDS011;22580;57.670;12.006;2023-05-23T05:46:58;1.40;;;1.30;;
13012;SDS011;22580;57.670;12.006;2023-05-23T05:49:32;0.85;;;0.85;;
13012;SDS011;22580;57.670;12.006;2023-05-23T05:52:01;0.80;;;0.80;;
13012;SDS011;22580;57.670;12.006;2023-05-23T05:54:28;0.70;;;0.70;;
13012;SDS011;22580;57.670;12.006;2023-05-23T05:57:09;1.00;;;0.90;;
13012;SDS011;22580;57.670;12.006;2023-05-23T05:59:38;0.75;;;0.75;;
13012;SDS011;22580;57.670;12.006;2023-05-23T06:02:05;0.70;;;0.70;;
13012;SDS011;22580;57.670;12.006;2023-05-23T06:04:34;0.70;;;0.70;;
13012;SDS011;22580;57.670;12.006;2023-05-23T06:07:01;0.70;;;0.70;;
13012;SDS011;22580;57.670;12.006;2023-05-23T06:09:28;2.22;;;1.15;;
13012;SDS011;22580;57.670;12.006;2023-05-23T06:11:55;1.20;;;1.00;;
13012;SDS011;22580;57.670;12.006;2023-05-23T06:14:22;0.90;;;0.90;;
13012;SDS011;22580;57.670;12.006;2023-05-23T06:16:50;0.70;;;0.70;;
13012;SDS011;22580;57.670;12.006;2023-05-23T06:19:17;0.63;;;0.63;;
13012;SDS011;22580;57.670;12.006;2023-05-23T06:21:45;0.70;;;0.70;;
13012;SDS011;22580;57.670;12.006;2023-05-23T06:24:12;0.50;;;0.50;;
13012;SDS011;22580;57.670;12.006;2023-05-23T06:26:39;0.52;;;0.52;;
13012;SDS011;22580;57.670;12.006;2023-05-23T06:29:11;0.63;;;0.63;;
13012;SDS011;22580;57.670;12.006;2023-05-23T06:31:38;1.00;;;0.65;;
13012;SDS011;22580;57.670;12.006;2023-05-23T06:34:08;0.93;;;0.93;;
13012;SDS011;22580;57.670;12.006;2023-05-23T06:36:38;0.70;;;0.70;;
13012;SDS011;22580;57.670;12.006;2023-05-23T06:39:12;1.08;;;0.85;;
13012;SDS011;22580;57.670;12.006;2023-05-23T06:41:45;1.67;;;0.80;;
13012;SDS011;22580;57.670;12.006;2023-05-23T06:44:13;0.65;;;0.65;;
13012;SDS011;22580;57.670;12.006;2023-05-23T06:46:41;0.50;;;0.50;;
13012;SDS011;22580;57.670;12.006;2023-05-23T06:49:08;0.50;;;0.50;;
13012;SDS011;22580;57.670;12.006;2023-05-23T06:51:36;0.90;;;0.80;;
13012;SDS011;22580;57.670;12.006;2023-05-23T06:54:03;0.90;;;0.90;;
13012;SDS011;22580;57.670;12.006;2023-05-23T06:56:32;0.90;;;0.90;;
13012;SDS011;22580;57.670;12.006;2023-05-23T06:59:05;1.10;;;1.10;;
13012;SDS011;22580;57.670;12.006;2023-05-23T07:01:32;1.00;;;1.00;;
13012;SDS011;22580;57.670;12.006;2023-05-23T07:03:59;0.90;;;0.90;;
13012;SDS011;22580;57.670;12.006;2023-05-23T07:06:26;0.80;;;0.80;;
13012;SDS011;22580;57.670;12.006;2023-05-23T07:08:55;0.73;;;0.73;;
13012;SDS011;22580;57.670;12.006;2023-05-23T07:11:22;1.00;;;1.00;;
13012;SDS011;22580;57.670;12.006;2023-05-23T07:13:51;0.70;;;0.70;;
13012;SDS011;22580;57.670;12.006;2023-05-23T07:16:18;0.90;;;0.90;;
13012;SDS011;22580;57.670;12.006;2023-05-23T07:18:45;0.70;;;0.70;;
13012;SDS011;22580;57.670;12.006;2023-05-23T07:21:12;0.95;;;0.95;;
13012;SDS011;22580;57.670;12.006;2023-05-23T07:23:39;1.00;;;1.00;;
13012;SDS011;22580;57.670;12.006;2023-05-23T07:26:06;0.77;;;0.77;;
13012;SDS011;22580;57.670;12.006;2023-05-23T07:28:34;0.80;;;0.70;;
13012;SDS011;22580;57.670;12.006;2023-05-23T07:31:03;0.80;;;0.80;;
13012;SDS011;22580;57.670;12.006;2023-05-23T07:33:33;0.90;;;0.90;;
13012;SDS011;22580;57.670;12.006;2023-05-23T07:36:00;0.60;;;0.60;;
13012;SDS011;22580;57.670;12.006;2023-05-23T07:38:27;0.70;;;0.70;;
13012;SDS011;22580;57.670;12.006;2023-05-23T07:40:54;0.65;;;0.65;;
13012;SDS011;22580;57.670;12.006;2023-05-23T07:43:21;0.70;;;0.70;;
13012;SDS011;22580;57.670;12.006;2023-05-23T07:45:48;0.70;;;0.70;;
13012;SDS011;22580;57.670;12.006;2023-05-23T07:48:16;0.50;;;0.50;;
13012;SDS011;22580;57.670;12.006;2023-05-23T07:50:43;0.77;;;0.77;;
13012;SDS011;22580;57.670;12.006;2023-05-23T07:53:10;1.20;;;1.10;;
13012;SDS011;22580;57.670;12.006;2023-05-23T07:55:37;0.80;;;0.80;;
13012;SDS011;22580;57.670;12.006;2023-05-23T07:58:04;0.98;;;0.98;;
13012;SDS011;22580;57.670;12.006;2023-05-23T08:00:31;1.00;;;1.00;;
13012;SDS011;22580;57.670;12.006;2023-05-23T08:02:58;0.93;;;0.93;;
13012;SDS011;22580;57.670;12.006;2023-05-23T08:05:28;1.05;;;1.05;;
13012;SDS011;22580;57.670;12.006;2023-05-23T08:07:55;1.10;;;1.05;;
13012;SDS011;22580;57.670;12.006;2023-05-23T08:10:23;0.73;;;0.73;;
13012;SDS011;22580;57.670;12.006;2023-05-23T08:12:52;0.95;;;0.90;;
13012;SDS011;22580;57.670;12.006;2023-05-23T08:15:19;0.88;;;0.88;;
13012;SDS011;22580;57.670;12.006;2023-05-23T08:17:47;0.90;;;0.90;;
13012;SDS011;22580;57.670;12.006;2023-05-23T08:20:14;0.93;;;0.90;;
13012;SDS011;22580;57.670;12.006;2023-05-23T08:22:45;0.70;;;0.70;;
13012;SDS011;22580;57.670;12.006;2023-05-23T08:25:12;0.90;;;0.90;;
13012;SDS011;22580;57.670;12.006;2023-05-23T08:27:42;0.93;;;0.90;;
13012;SDS011;22580;57.670;12.006;2023-05-23T08:30:11;0.65;;;0.65;;
13012;SDS011;22580;57.670;12.006;2023-05-23T08:32:39;0.68;;;0.68;;
13012;SDS011;22580;57.670;12.006;2023-05-23T08:35:09;0.60;;;0.60;;
13012;SDS011;22580;57.670;12.006;2023-05-23T08:37:36;0.60;;;0.60;;
13012;SDS011;22580;57.670;12.006;2023-05-23T08:40:07;0.63;;;0.63;;
13012;SDS011;22580;57.670;12.006;2023-05-23T08:42:43;0.80;;;0.80;;
13012;SDS011;22580;57.670;12.006;2023-05-23T08:45:10;1.30;;;1.30;;
13012;SDS011;22580;57.670;12.006;2023-05-23T08:47:37;1.02;;;1.02;;
13012;SDS011;22580;57.670;12.006;2023-05-23T08:50:09;1.23;;;1.13;;
13012;SDS011;22580;57.670;12.006;2023-05-23T08:52:41;1.13;;;1.13;;
13012;SDS011;22580;57.670;12.006;2023-05-23T08:55:11;1.02;;;1.02;;
13012;SDS011;22580;57.670;12.006;2023-05-23T08:57:38;1.20;;;1.10;;
13012;SDS011;22580;57.670;12.006;2023-05-23T09:02:42;1.00;;;1.00;;
13012;SDS011;22580;57.670;12.006;2023-05-23T09:05:09;1.00;;;1.00;;
13012;SDS011;22580;57.670;12.006;2023-05-23T09:07:36;1.00;;;1.00;;
13012;SDS011;22580;57.670;12.006;2023-05-23T09:10:05;0.95;;;0.95;;
13012;SDS011;22580;57.670;12.006;2023-05-23T09:12:37;1.30;;;0.98;;
13012;SDS011;22580;57.670;12.006;2023-05-23T09:15:05;1.05;;;1.05;;
13012;SDS011;22580;57.670;12.006;2023-05-23T09:17:34;0.98;;;0.98;;
13012;SDS011;22580;57.670;12.006;2023-05-23T09:20:09;1.30;;;1.20;;
13012;SDS011;22580;57.670;12.006;2023-05-23T09:22:37;1.05;;;0.95;;
13012;SDS011;22580;57.670;12.006;2023-05-23T09:25:04;0.80;;;0.80;;
13012;SDS011;22580;57.670;12.006;2023-05-23T09:27:34;1.27;;;1.15;;
13012;SDS011;22580;57.670;12.006;2023-05-23T09:32:42;1.17;;;1.17;;
13012;SDS011;22580;57.670;12.006;2023-05-23T09:35:23;1.10;;;1.10;;
13012;SDS011;22580;57.670;12.006;2023-05-23T09:37:55;1.23;;;1.20;;
13012;SDS011;22580;57.670;12.006;2023-05-23T09:40:28;1.20;;;1.10;;
13012;SDS011;22580;57.670;12.006;2023-05-23T09:43:00;1.50;;;1.40;;
13012;SDS011;22580;57.670;12.006;2023-05-23T09:45:30;1.60;;;1.50;;
13012;SDS011;22580;57.670;12.006;2023-05-23T09:47:58;1.50;;;1.40;;
13012;SDS011;22580;57.670;12.006;2023-05-23T09:50:29;1.10;;;1.10;;
13012;SDS011;22580;57.670;12.006;2023-05-23T09:52:57;1.08;;;1.00;;
13012;SDS011;22580;57.670;12.006;2023-05-23T09:55:25;0.68;;;0.68;;
13012;SDS011;22580;57.670;12.006;2023-05-23T09:57:52;0.90;;;0.90;;
13012;SDS011;22580;57.670;12.006;2023-05-23T10:00:22;1.55;;;1.45;;
13012;SDS011;22580;57.670;12.006;2023-05-23T10:02:57;1.80;;;1.58;;
13012;SDS011;22580;57.670;12.006;2023-05-23T10:05:35;1.63;;;1.52;;
13012;SDS011;22580;57.670;12.006;2023-05-23T10:08:07;1.70;;;1.60;;
13012;SDS011;22580;57.670;12.006;2023-05-23T10:10:49;1.80;;;1.70;;
13012;SDS011;22580;57.670;12.006;2023-05-23T10:13:59;1.33;;;1.30;;
13012;SDS011;22580;57.670;12.006;2023-05-23T10:16:29;1.20;;;1.20;;
13012;SDS011;22580;57.670;12.006;2023-05-23T10:19:17;1.40;;;1.30;;
13012;SDS011;22580;57.670;12.006;2023-05-23T10:21:49;1.60;;;1.50;;
13012;SDS011;22580;57.670;12.006;2023-05-23T10:24:19;1.70;;;1.60;;
13012;SDS011;22580;57.670;12.006;2023-05-23T10:26:47;1.27;;;1.27;;
13012;SDS011;22580;57.670;12.006;2023-05-23T10:29:14;1.48;;;1.38;;
13012;SDS011;22580;57.670;12.006;2023-05-23T10:31:41;0.95;;;0.95;;
13012;SDS011;22580;57.670;12.006;2023-05-23T10:34:13;1.00;;;1.00;;
13012;SDS011;22580;57.670;12.006;2023-05-23T10:36:48;1.25;;;1.20;;
13012;SDS011;22580;57.670;12.006;2023-05-23T10:39:23;1.13;;;1.13;;
13012;SDS011;22580;57.670;12.006;2023-05-23T10:41:59;1.40;;;1.30;;
13012;SDS011;22580;57.670;12.006;2023-05-23T10:44:31;1.35;;;1.20;;
13012;SDS011;22580;57.670;12.006;2023-05-23T10:46:58;1.40;;;1.30;;
13012;SDS011;22580;57.670;12.006;2023-05-23T10:49:40;1.05;;;1.05;;
13012;SDS011;22580;57.670;12.006;2023-05-23T10:52:09;1.00;;;1.00;;
13012;SDS011;22580;57.670;12.006;2023-05-23T10:54:41;0.95;;;0.95;;
13012;SDS011;22580;57.670;12.006;2023-05-23T10:57:14;0.90;;;0.90;;
13012;SDS011;22580;57.670;12.006;2023-05-23T10:59:43;0.68;;;0.68;;
13012;SDS011;22580;57.670;12.006;2023-05-23T11:02:12;0.50;;;0.50;;
13012;SDS011;22580;57.670;12.006;2023-05-23T11:04:41;0.80;;;0.80;;
13012;SDS011;22580;57.670;12.006;2023-05-23T11:10:10;0.70;;;0.70;;
13012;SDS011;22580;57.670;12.006;2023-05-23T11:12:39;1.05;;;1.05;;
13012;SDS011;22580;57.670;12.006;2023-05-23T11:18:06;1.00;;;1.00;;
13012;SDS011;22580;57.670;12.006;2023-05-23T11:20:35;1.52;;;1.42;;
13012;SDS011;22580;57.670;12.006;2023-05-23T11:23:06;1.17;;;1.17;;
13012;SDS011;22580;57.670;12.006;2023-05-23T11:25:40;1.30;;;1.20;;
13012;SDS011;22580;57.670;12.006;2023-05-23T11:28:08;1.30;;;1.20;;
13012;SDS011;22580;57.670;12.006;2023-05-23T11:30:36;1.10;;;1.10;;
13012;SDS011;22580;57.670;12.006;2023-05-23T11:33:07;0.70;;;0.70;;
13012;SDS011;22580;57.670;12.006;2023-05-23T11:35:39;1.25;;;1.15;;
13012;SDS011;22580;57.670;12.006;2023-05-23T11:38:10;1.40;;;1.30;;
13012;SDS011;22580;57.670;12.006;2023-05-23T11:40:37;1.10;;;1.10;;
13012;SDS011;22580;57.670;12.006;2023-05-23T11:43:07;0.98;;;0.98;;
13012;SDS011;22580;57.670;12.006;2023-05-23T11:45:35;1.17;;;1.17;;
13012;SDS011;22580;57.670;12.006;2023-05-23T11:48:06;1.58;;;1.33;;
13012;SDS011;22580;57.670;12.006;2023-05-23T11:50:34;1.23;;;1.20;;
13012;SDS011;22580;57.670;12.006;2023-05-23T11:53:11;1.60;;;1.50;;
13012;SDS011;22580;57.670;12.006;2023-05-23T11:55:46;1.77;;;1.50;;
13012;SDS011;22580;57.670;12.006;2023-05-23T11:58:16;1.77;;;1.67;;
13012;SDS011;22580;57.670;12.006;2023-05-23T12:00:44;1.45;;;1.38;;
13012;SDS011;22580;57.670;12.006;2023-05-23T12:03:11;1.80;;;1.70;;
13012;SDS011;22580;57.670;12.006;2023-05-23T12:05:38;1.20;;;1.20;;
13012;SDS011;22580;57.670;12.006;2023-05-23T12:08:09;1.48;;;1.40;;
13012;SDS011;22580;57.670;12.006;2023-05-23T12:10:37;1.27;;;1.27;;
13012;SDS011;22580;57.670;12.006;2023-05-23T12:13:15;1.70;;;1.10;;
13012;SDS011;22580;57.670;12.006;2023-05-23T12:15:42;1.23;;;1.23;;
13012;SDS011;22580;57.670;12.006;2023-05-23T12:18:09;1.27;;;1.25;;
13012;SDS011;22580;57.670;12.006;2023-05-23T12:20:39;1.25;;;1.15;;
13012;SDS011;22580;57.670;12.006;2023-05-23T12:23:07;1.00;;;1.00;;
13012;SDS011;22580;57.670;12.006;2023-05-23T12:25:51;0.90;;;0.90;;
13012;SDS011;22580;57.670;12.006;2023-05-23T12:28:19;1.05;;;1.00;;
13012;SDS011;22580;57.670;12.006;2023-05-23T12:31:01;0.80;;;0.80;;
13012;SDS011;22580;57.670;12.006;2023-05-23T12:33:39;1.10;;;1.10;;
13012;SDS011;22580;57.670;12.006;2023-05-23T12:36:12;1.38;;;1.30;;
13012;SDS011;22580;57.670;12.006;2023-05-23T12:38:41;1.13;;;1.13;;
13012;SDS011;22580;57.670;12.006;2023-05-23T12:41:10;1.00;;;1.00;;
13012;SDS011;22580;57.670;12.006;2023-05-23T12:43:38;1.00;;;1.00;;
13012;SDS011;22580;57.670;12.006;2023-05-23T12:46:05;1.02;;;1.00;;
13012;SDS011;22580;57.670;12.006;2023-05-23T12:48:32;1.27;;;1.20;;
13012;SDS011;22580;57.670;12.006;2023-05-23T12:51:00;1.35;;;1.25;;
13012;SDS011;22580;57.670;12.006;2023-05-23T12:53:27;1.00;;;1.00;;
13012;SDS011;22580;57.670;12.006;2023-05-23T12:55:56;0.90;;;0.90;;
13012;SDS011;22580;57.670;12.006;2023-05-23T12:58:23;0.90;;;0.90;;
13012;SDS011;22580;57.670;12.006;2023-05-23T13:00:50;0.80;;;0.80;;
13012;SDS011;22580;57.670;12.006;2023-05-23T13:03:17;0.90;;;0.90;;
13012;SDS011;22580;57.670;12.006;2023-05-23T13:05:44;0.80;;;0.80;;
13012;SDS011;22580;57.670;12.006;2023-05-23T13:08:11;0.80;;;0.80;;
13012;SDS011;22580;57.670;12.006;2023-05-23T13:10:38;1.00;;;1.00;;
13012;SDS011;22580;57.670;12.006;2023-05-23T13:13:07;0.60;;;0.60;;
13012;SDS011;22580;57.670;12.006;2023-05-23T13:15:34;0.45;;;0.45;;
13012;SDS011;22580;57.670;12.006;2023-05-23T13:18:01;0.70;;;0.70;;
13012;SDS011;22580;57.670;12.006;2023-05-23T13:20:28;0.80;;;0.80;;
13012;SDS011;22580;57.670;12.006;2023-05-23T13:22:55;0.82;;;0.82;;
13012;SDS011;22580;57.670;12.006;2023-05-23T13:25:23;0.77;;;0.77;;
13012;SDS011;22580;57.670;12.006;2023-05-23T13:27:50;1.45;;;1.35;;
13012;SDS011;22580;57.670;12.006;2023-05-23T13:30:19;1.52;;;1.42;;
13012;SDS011;22580;57.670;12.006;2023-05-23T13:32:48;1.17;;;1.10;;
13012;SDS011;22580;57.670;12.006;2023-05-23T13:35:15;1.30;;;1.30;;
13012;SDS011;22580;57.670;12.006;2023-05-23T13:37:42;1.23;;;1.20;;
13012;SDS011;22580;57.670;12.006;2023-05-23T13:40:15;1.08;;;1.08;;
13012;SDS011;22580;57.670;12.006;2023-05-23T13:42:44;0.98;;;0.98;;
13012;SDS011;22580;57.670;12.006;2023-05-23T13:45:14;1.15;;;1.05;;
13012;SDS011;22580;57.670;12.006;2023-05-23T13:47:43;0.90;;;0.90;;
13012;SDS011;22580;57.670;12.006;2023-05-23T13:50:11;1.23;;;1.13;;
13012;SDS011;22580;57.670;12.006;2023-05-23T13:52:38;0.80;;;0.80;;
13012;SDS011;22580;57.670;12.006;2023-05-23T13:55:05;0.80;;;0.80;;
13012;SDS011;22580;57.670;12.006;2023-05-23T13:57:33;1.10;;;1.10;;
13012;SDS011;22580;57.670;12.006;2023-05-23T14:00:01;1.13;;;1.10;;
13012;SDS011;22580;57.670;12.006;2023-05-23T14:02:28;0.93;;;0.93;;
13012;SDS011;22580;57.670;12.006;2023-05-23T14:04:57;0.98;;;0.98;;
13012;SDS011;22580;57.670;12.006;2023-05-23T14:07:24;1.00;;;1.00;;
13012;SDS011;22580;57.670;12.006;2023-05-23T14:09:52;1.23;;;1.13;;
13012;SDS011;22580;57.670;12.006;2023-05-23T14:12:25;0.90;;;0.90;;
13012;SDS011;22580;57.670;12.006;2023-05-23T14:14:52;0.95;;;0.95;;
13012;SDS011;22580;57.670;12.006;2023-05-23T14:17:19;1.00;;;1.00;;
13012;SDS011;22580;57.670;12.006;2023-05-23T14:19:46;0.90;;;0.90;;
13012;SDS011;22580;57.670;12.006;2023-05-23T14:22:15;1.23;;;1.13;;
13012;SDS011;22580;57.670;12.006;2023-05-23T14:24:42;1.02;;;1.02;;
13012;SDS011;22580;57.670;12.006;2023-05-23T14:27:09;1.08;;;1.08;;
13012;SDS011;22580;57.670;12.006;2023-05-23T14:29:36;0.88;;;0.88;;
13012;SDS011;22580;57.670;12.006;2023-05-23T14:32:04;0.65;;;0.65;;
13012;SDS011;22580;57.670;12.006;2023-05-23T14:34:31;0.70;;;0.70;;
13012;SDS011;22580;57.670;12.006;2023-05-23T14:36:59;0.70;;;0.70;;
13012;SDS011;22580;57.670;12.006;2023-05-23T14:39:28;0.50;;;0.50;;
13012;SDS011;22580;57.670;12.006;2023-05-23T14:41:55;0.50;;;0.50;;
13012;SDS011;22580;57.670;12.006;2023-05-23T14:44:22;0.40;;;0.40;;
13012;SDS011;22580;57.670;12.006;2023-05-23T14:46:49;0.50;;;0.50;;
13012;SDS011;22580;57.670;12.006;2023-05-23T14:49:17;0.40;;;0.40;;
13012;SDS011;22580;57.670;12.006;2023-05-23T14:51:44;0.55;;;0.55;;
13012;SDS011;22580;57.670;12.006;2023-05-23T14:54:12;0.40;;;0.40;;
13012;SDS011;22580;57.670;12.006;2023-05-23T14:56:42;0.65;;;0.65;;
13012;SDS011;22580;57.670;12.006;2023-05-23T14:59:09;0.40;;;0.40;;
13012;SDS011;22580;57.670;12.006;2023-05-23T15:01:36;0.47;;;0.47;;
13012;SDS011;22580;57.670;12.006;2023-05-23T15:04:04;0.50;;;0.50;;
13012;SDS011;22580;57.670;12.006;2023-05-23T15:06:33;0.60;;;0.60;;
13012;SDS011;22580;57.670;12.006;2023-05-23T15:09:04;0.60;;;0.60;;
13012;SDS011;22580;57.670;12.006;2023-05-23T15:11:33;0.90;;;0.90;;
13012;SDS011;22580;57.670;12.006;2023-05-23T15:14:04;0.80;;;0.80;;
13012;SDS011;22580;57.670;12.006;2023-05-23T15:16:31;0.80;;;0.80;;
13012;SDS011;22580;57.670;12.006;2023-05-23T15:18:59;0.90;;;0.90;;
13012;SDS011;22580;57.670;12.006;2023-05-23T15:21:27;1.00;;;1.00;;
13012;SDS011;22580;57.670;12.006;2023-05-23T15:23:54;1.05;;;1.05;;
13012;SDS011;22580;57.670;12.006;2023-05-23T15:26:21;0.80;;;0.80;;